Time;durP1;ratioP1;P1;durP2;ratioP2;P2;SDS_P1;SDS_P2;PMS_P1;PMS_P2;Temp;Humidity;BMP_temperature;BMP_pressure;BME280_temperature;BME280_humidity;BME280_pressure;Samples;Min_cycle;Max_cycle;Signal;HPM_P1;HPM_P2
2021/10/21 00:01:06;;;;;;;0.00;0.00;;;;;;;;;;10442611;28;20057;-65
2021/10/21 00:06:09;;;;;;;0.00;0.00;;;;;;;;;;10451308;28;20147;-66
2021/10/21 00:11:13;;;;;;;0.00;0.00;;;;;;;;;;10440695;28;20041;-65
2021/10/21 00:16:16;;;;;;;0.00;0.00;;;;;;;;;;10440521;28;20045;-65
2021/10/21 00:21:19;;;;;;;0.00;0.00;;;;;;;;;;10447292;28;20049;-65
2021/10/21 00:26:23;;;;;;;0.00;0.00;;;;;;;;;;10459333;28;20051;-65
2021/10/21 00:31:25;;;;;;;0.00;0.00;;;;;;;;;;10462089;28;20735;-65
2021/10/21 00:36:29;;;;;;;0.00;0.00;;;;;;;;;;10455799;28;20040;-65
2021/10/21 00:41:33;;;;;;;0.00;0.00;;;;;;;;;;10460005;28;20048;-65
2021/10/21 00:46:36;;;;;;;0.00;0.00;;;;;;;;;;10455539;28;20226;-66
2021/10/21 00:51:39;;;;;;;0.00;0.00;;;;;;;;;;10438118;28;20140;-65
2021/10/21 00:56:44;;;;;;;0.00;0.00;;;;;;;;;;10445559;28;20056;-64
2021/10/21 01:01:47;;;;;;;0.00;0.00;;;;;;;;;;10465955;28;20048;-64
2021/10/21 01:06:50;;;;;;;0.00;0.00;;;;;;;;;;10445251;28;20135;-64
2021/10/21 01:11:54;;;;;;;0.00;0.00;;;;;;;;;;10428564;28;20055;-64
2021/10/21 01:16:57;;;;;;;0.00;0.00;;;;;;;;;;10456491;28;20047;-64
2021/10/21 01:22:03;;;;;;;0.00;0.00;;;;;;;;;;10447504;28;20075;-64
2021/10/21 01:27:06;;;;;;;0.00;0.00;;;;;;;;;;10447842;28;20384;-65
2021/10/21 01:32:10;;;;;;;0.00;0.00;;;;;;;;;;10445430;28;20047;-64
2021/10/21 01:37:14;;;;;;;0.00;0.00;;;;;;;;;;10441998;28;20406;-65
2021/10/21 01:42:17;;;;;;;0.00;0.00;;;;;;;;;;10447081;28;20052;-64
2021/10/21 01:47:20;;;;;;;0.00;0.00;;;;;;;;;;10442952;28;20505;-65
2021/10/21 01:52:24;;;;;;;0.00;0.00;;;;;;;;;;10457552;28;20058;-64
2021/10/21 01:57:27;;;;;;;0.00;0.00;;;;;;;;;;10433095;28;20049;-64
2021/10/21 02:02:29;;;;;;;0.00;0.00;;;;;;;;;;10452779;28;20412;-64
2021/10/21 02:07:33;;;;;;;0.00;0.00;;;;;;;;;;10453060;28;20040;-64
2021/10/21 02:12:36;;;;;;;0.00;0.00;;;;;;;;;;10429918;28;20109;-64
2021/10/21 02:17:39;;;;;;;0.00;0.00;;;;;;;;;;10448813;28;20136;-64
2021/10/21 02:22:45;;;;;;;0.00;0.00;;;;;;;;;;10404491;28;20067;-64
2021/10/21 02:27:48;;;;;;;0.00;0.00;;;;;;;;;;10379115;28;20095;-64
2021/10/21 02:32:50;;;;;;;0.00;0.00;;;;;;;;;;10406674;28;20064;-64
2021/10/21 02:37:54;;;;;;;0.10;0.00;;;;;;;;;;10378790;28;20055;-64
2021/10/21 02:42:57;;;;;;;0.00;0.00;;;;;;;;;;10395727;28;20056;-64
2021/10/21 02:48:00;;;;;;;0.00;0.00;;;;;;;;;;10403287;28;20041;-64
2021/10/21 02:53:05;;;;;;;0.00;0.00;;;;;;;;;;10403606;28;20056;-64
2021/10/21 02:58:08;;;;;;;0.00;0.00;;;;;;;;;;10419535;28;20037;-64
2021/10/21 03:03:11;;;;;;;0.00;0.00;;;;;;;;;;10392562;28;20046;-64
2021/10/21 03:08:17;;;;;;;0.00;0.00;;;;;;;;;;10403552;28;20049;-64
2021/10/21 03:13:19;;;;;;;0.00;0.00;;;;;;;;;;10419143;28;20467;-64
2021/10/21 03:18:23;;;;;;;0.00;0.00;;;;;;;;;;10405384;28;20817;-64
2021/10/21 03:23:28;;;;;;;0.00;0.00;;;;;;;;;;10438158;28;20557;-64
2021/10/21 03:28:31;;;;;;;0.00;0.00;;;;;;;;;;10457567;28;20060;-64
2021/10/21 03:33:35;;;;;;;0.00;0.00;;;;;;;;;;10440884;28;20057;-64
2021/10/21 03:38:40;;;;;;;0.00;0.00;;;;;;;;;;10451121;28;20055;-64
2021/10/21 03:43:44;;;;;;;0.00;0.00;;;;;;;;;;10457088;28;20045;-64
2021/10/21 03:48:48;;;;;;;0.00;0.00;;;;;;;;;;10433208;28;20618;-65
2021/10/21 03:53:52;;;;;;;0.00;0.00;;;;;;;;;;10452983;28;20051;-64
2021/10/21 03:58:55;;;;;;;0.00;0.00;;;;;;;;;;10460003;28;20049;-64
2021/10/21 04:03:59;;;;;;;0.00;0.00;;;;;;;;;;10439548;28;20135;-64
2021/10/21 04:09:03;;;;;;;0.00;0.00;;;;;;;;;;10448053;28;20048;-64
2021/10/21 04:14:07;;;;;;;0.00;0.00;;;;;;;;;;10446849;28;20155;-64
2021/10/21 04:19:09;;;;;;;0.00;0.00;;;;;;;;;;10447324;28;20038;-64
2021/10/21 04:24:15;;;;;;;0.00;0.00;;;;;;;;;;10399289;28;20414;-64
2021/10/21 04:29:17;;;;;;;0.00;0.00;;;;;;;;;;10398193;28;20140;-64
2021/10/21 04:34:20;;;;;;;0.00;0.00;;;;;;;;;;10386451;28;20095;-65
2021/10/21 04:39:24;;;;;;;0.00;0.00;;;;;;;;;;10412026;28;20136;-64
2021/10/21 04:44:27;;;;;;;0.00;0.00;;;;;;;;;;10396116;28;20041;-65
2021/10/21 04:49:30;;;;;;;0.00;0.00;;;;;;;;;;10396805;28;20047;-64
2021/10/21 04:54:35;;;;;;;0.00;0.00;;;;;;;;;;10391151;28;20041;-64
2021/10/21 04:59:38;;;;;;;0.00;0.00;;;;;;;;;;10395645;28;20053;-64
2021/10/21 05:04:40;;;;;;;0.00;0.00;;;;;;;;;;10395074;28;20041;-64
2021/10/21 05:09:44;;;;;;;0.08;0.08;;;;;;;;;;10393856;28;20044;-68
2021/10/21 05:14:47;;;;;;;0.10;0.10;;;;;;;;;;10395263;28;20045;-69
2021/10/21 05:19:50;;;;;;;0.00;0.00;;;;;;;;;;10404733;28;20060;-67
2021/10/21 05:24:54;;;;;;;0.00;0.00;;;;;;;;;;10432823;28;20139;-67
2021/10/21 05:29:58;;;;;;;0.00;0.00;;;;;;;;;;10460334;28;20520;-67
2021/10/21 05:35:00;;;;;;;0.10;0.10;;;;;;;;;;10452984;28;20037;-67
2021/10/21 05:40:05;;;;;;;0.00;0.00;;;;;;;;;;10432642;28;20821;-66
2021/10/21 05:45:08;;;;;;;0.00;0.00;;;;;;;;;;10448441;28;20457;-66
2021/10/21 05:50:11;;;;;;;0.00;0.00;;;;;;;;;;10453641;28;20056;-66
2021/10/21 05:55:15;;;;;;;0.05;0.05;;;;;;;;;;10442739;28;20040;-66
2021/10/21 06:00:18;;;;;;;0.00;0.00;;;;;;;;;;10448546;28;20037;-66
2021/10/21 06:05:23;;;;;;;0.00;0.00;;;;;;;;;;10451317;28;20067;-67
2021/10/21 06:10:27;;;;;;;0.00;0.00;;;;;;;;;;10448814;28;20202;-67
2021/10/21 06:15:30;;;;;;;0.20;0.10;;;;;;;;;;10444712;28;20937;-68
2021/10/21 06:20:34;;;;;;;0.10;0.10;;;;;;;;;;10436965;28;20067;-68
2021/10/21 06:25:43;;;;;;;0.00;0.00;;;;;;;;;;10397264;28;20060;-66
2021/10/21 06:30:46;;;;;;;0.00;0.00;;;;;;;;;;10398390;28;20828;-65
2021/10/21 06:35:49;;;;;;;0.03;0.03;;;;;;;;;;10418627;28;20055;-65
2021/10/21 06:40:53;;;;;;;0.00;0.00;;;;;;;;;;10398184;28;20049;-65
2021/10/21 06:45:56;;;;;;;0.10;0.10;;;;;;;;;;10400726;28;20048;-66
2021/10/21 06:50:59;;;;;;;0.00;0.00;;;;;;;;;;10396223;28;20057;-64
2021/10/21 06:56:03;;;;;;;0.00;0.00;;;;;;;;;;10399247;28;20120;-66
2021/10/21 07:01:06;;;;;;;0.10;0.10;;;;;;;;;;10411731;28;20573;-65
2021/10/21 07:06:09;;;;;;;0.10;0.10;;;;;;;;;;10396658;28;20046;-66
2021/10/21 07:11:13;;;;;;;0.10;0.10;;;;;;;;;;10411733;28;20518;-65
2021/10/21 07:16:16;;;;;;;0.00;0.00;;;;;;;;;;10425489;28;20053;-64
2021/10/21 07:21:21;;;;;;;0.00;0.00;;;;;;;;;;10431667;28;20139;-66
2021/10/21 07:26:25;;;;;;;0.10;0.00;;;;;;;;;;10450955;28;20052;-66
2021/10/21 07:31:27;;;;;;;0.00;0.00;;;;;;;;;;10439197;28;20470;-65
2021/10/21 07:36:30;;;;;;;0.00;0.00;;;;;;;;;;10439660;28;20797;-66
2021/10/21 07:41:35;;;;;;;0.00;0.00;;;;;;;;;;10442116;28;20862;-65
2021/10/21 07:46:41;;;;;;;0.03;0.03;;;;;;;;;;10466736;28;20048;-66
2021/10/21 07:51:44;;;;;;;0.10;0.10;;;;;;;;;;10430167;28;20423;-66
2021/10/21 07:56:48;;;;;;;0.00;0.00;;;;;;;;;;10462861;28;20043;-66
2021/10/21 08:01:51;;;;;;;0.00;0.00;;;;;;;;;;10461690;28;20041;-66
2021/10/21 08:06:56;;;;;;;0.00;0.00;;;;;;;;;;10448358;28;20103;-66
2021/10/21 08:12:00;;;;;;;0.10;0.10;;;;;;;;;;10440468;28;20061;-66
2021/10/21 08:17:03;;;;;;;0.03;0.03;;;;;;;;;;10440744;28;20060;-65
2021/10/21 08:22:06;;;;;;;0.00;0.00;;;;;;;;;;10452308;28;20499;-66
2021/10/21 08:27:10;;;;;;;0.10;0.10;;;;;;;;;;10450448;28;20037;-65
2021/10/21 08:32:14;;;;;;;0.00;0.00;;;;;;;;;;10449582;28;20148;-66
2021/10/21 08:37:18;;;;;;;0.30;0.10;;;;;;;;;;10438268;28;20049;-65
2021/10/21 08:42:22;;;;;;;0.52;0.10;;;;;;;;;;10450145;28;20233;-66
2021/10/21 08:47:31;;;;;;;0.08;0.08;;;;;;;;;;10451112;28;20067;-66
2021/10/21 08:52:34;;;;;;;0.10;0.10;;;;;;;;;;10451681;28;20487;-65
2021/10/21 08:57:45;;;;;;;0.00;0.00;;;;;;;;;;10433102;28;20045;-66
2021/10/21 09:02:52;;;;;;;0.00;0.00;;;;;;;;;;10445846;28;20041;-65
2021/10/21 09:08:05;;;;;;;0.00;0.00;;;;;;;;;;10459649;28;20407;-66
2021/10/21 09:19:06;;;;;;;0.00;0.00;;;;;;;;;;10452568;28;20106;-64
2021/10/21 09:24:55;;;;;;;0.00;0.00;;;;;;;;;;10397465;28;20095;-65
2021/10/21 09:29:59;;;;;;;0.00;0.00;;;;;;;;;;10398184;28;20128;-66
2021/10/21 09:35:04;;;;;;;0.00;0.00;;;;;;;;;;10397787;28;20123;-64
2021/10/21 09:40:09;;;;;;;0.10;0.10;;;;;;;;;;10398176;28;20044;-65
2021/10/21 09:45:14;;;;;;;0.00;0.00;;;;;;;;;;10381606;28;20079;-65
2021/10/21 09:50:24;;;;;;;0.08;0.00;;;;;;;;;;10397754;28;20045;-65
2021/10/21 09:55:27;;;;;;;0.00;0.00;;;;;;;;;;10374023;28;20046;-67
2021/10/21 10:00:32;;;;;;;0.15;0.03;;;;;;;;;;10391461;28;20495;-63
2021/10/21 10:05:36;;;;;;;0.00;0.00;;;;;;;;;;10391169;28;20076;-64
2021/10/21 10:10:39;;;;;;;0.00;0.00;;;;;;;;;;10390500;28;20518;-64
2021/10/21 10:15:45;;;;;;;0.10;0.10;;;;;;;;;;10390633;28;20057;-64
2021/10/21 10:20:51;;;;;;;0.10;0.10;;;;;;;;;;10406033;28;20063;-64
2021/10/21 10:25:55;;;;;;;0.13;0.00;;;;;;;;;;10439080;28;20549;-63
2021/10/21 10:30:59;;;;;;;0.00;0.00;;;;;;;;;;10437867;28;20044;-64
2021/10/21 10:36:17;;;;;;;0.00;0.00;;;;;;;;;;10435615;28;20044;-65
2021/10/21 10:41:34;;;;;;;0.00;0.00;;;;;;;;;;10434900;28;20661;-66
2021/10/21 10:46:51;;;;;;;0.00;0.00;;;;;;;;;;10431115;28;20045;-64
2021/10/21 10:51:59;;;;;;;0.10;0.10;;;;;;;;;;10420614;28;20965;-65
2021/10/21 10:57:01;;;;;;;0.00;0.00;;;;;;;;;;10461802;28;20131;-65
2021/10/21 11:02:24;;;;;;;0.00;0.00;;;;;;;;;;10426960;28;20118;-65
2021/10/21 11:07:29;;;;;;;0.10;0.10;;;;;;;;;;10455493;28;20040;-65
2021/10/21 11:12:32;;;;;;;0.08;0.08;;;;;;;;;;10468373;28;20059;-65
2021/10/21 11:17:45;;;;;;;0.00;0.00;;;;;;;;;;10461742;28;20739;-65
2021/10/21 11:22:49;;;;;;;0.00;0.00;;;;;;;;;;10451443;28;20056;-64
2021/10/21 11:27:53;;;;;;;0.00;0.00;;;;;;;;;;10453928;28;20515;-65
2021/10/21 11:32:59;;;;;;;0.00;0.00;;;;;;;;;;10456407;28;20053;-65
2021/10/21 11:38:04;;;;;;;0.00;0.00;;;;;;;;;;10449318;28;20495;-66
2021/10/21 11:43:07;;;;;;;0.00;0.00;;;;;;;;;;10450065;28;20759;-66
2021/10/21 11:48:13;;;;;;;0.00;0.00;;;;;;;;;;10457694;28;20029;-66
2021/10/21 11:53:22;;;;;;;0.00;0.00;;;;;;;;;;10437991;28;20064;-66
2021/10/21 11:58:26;;;;;;;0.10;0.10;;;;;;;;;;10457271;28;20094;-65
2021/10/21 12:03:32;;;;;;;0.00;0.00;;;;;;;;;;10458473;28;20764;-65
2021/10/21 12:08:37;;;;;;;0.00;0.00;;;;;;;;;;10450352;28;20044;-65
2021/10/21 12:13:40;;;;;;;0.00;0.00;;;;;;;;;;10449304;28;20037;-65
2021/10/21 12:18:43;;;;;;;0.00;0.00;;;;;;;;;;10460661;28;20056;-66
2021/10/21 12:23:48;;;;;;;0.00;0.00;;;;;;;;;;10462667;28;20065;-66
2021/10/21 12:28:52;;;;;;;0.00;0.00;;;;;;;;;;10455785;28;20041;-65
2021/10/21 12:33:58;;;;;;;0.10;0.10;;;;;;;;;;10457960;28;20065;-65
2021/10/21 12:39:04;;;;;;;0.00;0.00;;;;;;;;;;10459256;28;20048;-65
2021/10/21 12:44:08;;;;;;;0.00;0.00;;;;;;;;;;10449231;28;20056;-66
2021/10/21 12:49:13;;;;;;;0.05;0.05;;;;;;;;;;10424569;28;20090;-68
2021/10/21 12:54:26;;;;;;;0.00;0.00;;;;;;;;;;10474945;28;20060;-67
2021/10/21 12:59:30;;;;;;;0.00;0.00;;;;;;;;;;10461671;28;20392;-67
2021/10/21 13:04:39;;;;;;;0.00;0.00;;;;;;;;;;10448753;28;20116;-66
2021/10/21 13:09:44;;;;;;;0.00;0.00;;;;;;;;;;10449522;28;20542;-74
2021/10/21 13:14:54;;;;;;;0.00;0.00;;;;;;;;;;10467434;28;20162;-67
2021/10/21 13:19:56;;;;;;;0.00;0.00;;;;;;;;;;10446095;28;20055;-67
2021/10/21 13:25:05;;;;;;;0.00;0.00;;;;;;;;;;10455911;28;20056;-65
2021/10/21 13:30:10;;;;;;;0.00;0.00;;;;;;;;;;10457707;28;20036;-68
2021/10/21 13:35:20;;;;;;;0.00;0.00;;;;;;;;;;10456077;28;20498;-67
2021/10/21 13:40:25;;;;;;;0.00;0.00;;;;;;;;;;10437995;28;20058;-65
2021/10/21 13:45:28;;;;;;;0.00;0.00;;;;;;;;;;10450811;28;20048;-65
2021/10/21 13:50:31;;;;;;;0.00;0.00;;;;;;;;;;10450067;28;20045;-68
2021/10/21 13:55:35;;;;;;;0.00;0.00;;;;;;;;;;10437594;28;20499;-65
2021/10/21 14:00:38;;;;;;;0.00;0.00;;;;;;;;;;10445245;28;20131;-65
2021/10/21 14:05:41;;;;;;;1.00;0.10;;;;;;;;;;10442555;28;20045;-65
2021/10/21 14:10:46;;;;;;;0.00;0.00;;;;;;;;;;10441400;28;20041;-65
2021/10/21 14:15:49;;;;;;;0.00;0.00;;;;;;;;;;10444651;28;20053;-67
2021/10/21 14:20:52;;;;;;;0.00;0.00;;;;;;;;;;10438013;28;20155;-66
2021/10/21 14:25:56;;;;;;;0.05;0.05;;;;;;;;;;10434667;28;20478;-67
2021/10/21 14:30:59;;;;;;;0.00;0.00;;;;;;;;;;10434790;28;20037;-66
2021/10/21 14:36:14;;;;;;;0.00;0.00;;;;;;;;;;10435588;28;20041;-66
2021/10/21 14:41:19;;;;;;;0.00;0.00;;;;;;;;;;10461752;28;20042;-65
2021/10/21 14:46:21;;;;;;;0.10;0.10;;;;;;;;;;10464331;28;20141;-66
2021/10/21 14:51:25;;;;;;;0.10;0.10;;;;;;;;;;10468384;28;20052;-65
2021/10/21 14:56:29;;;;;;;0.00;0.00;;;;;;;;;;10464865;28;20045;-68
2021/10/21 15:01:34;;;;;;;0.00;0.00;;;;;;;;;;10457619;28;20805;-67
2021/10/21 15:07:09;;;;;;;0.00;0.00;;;;;;;;;;10451001;28;20099;-69
2021/10/21 15:23:03;;;;;;;0.00;0.00;;;;;;;;;;10458793;28;20048;-67
2021/10/21 15:28:08;;;;;;;0.10;0.10;;;;;;;;;;10436526;28;20049;-68
2021/10/21 15:33:11;;;;;;;0.00;0.00;;;;;;;;;;10458521;28;20059;-67
2021/10/21 15:38:15;;;;;;;0.10;0.10;;;;;;;;;;10446125;28;20043;-68
2021/10/21 15:43:21;;;;;;;0.10;0.10;;;;;;;;;;10443992;28;20107;-68
2021/10/21 15:48:35;;;;;;;0.00;0.00;;;;;;;;;;10445253;28;20317;-66
2021/10/21 16:09:59;;;;;;;0.00;0.00;;;;;;;;;;10446503;28;20524;-68
2021/10/21 16:15:07;;;;;;;0.00;0.00;;;;;;;;;;10439632;28;20561;-68
2021/10/21 16:20:13;;;;;;;0.05;0.05;;;;;;;;;;10436718;28;20063;-67
2021/10/21 16:26:02;;;;;;;0.10;0.10;;;;;;;;;;10441611;28;20063;-65
2021/10/21 16:31:06;;;;;;;0.00;0.00;;;;;;;;;;10452945;28;20051;-64
2021/10/21 16:36:10;;;;;;;0.00;0.00;;;;;;;;;;10446115;28;20055;-66
2021/10/21 16:41:13;;;;;;;0.10;0.10;;;;;;;;;;10446326;28;20106;-68
2021/10/21 16:46:17;;;;;;;0.00;0.00;;;;;;;;;;10459528;28;20053;-68
2021/10/21 16:51:21;;;;;;;0.00;0.00;;;;;;;;;;10459562;28;20537;-70
2021/10/21 16:56:24;;;;;;;0.10;0.10;;;;;;;;;;10463085;28;21191;-69
2021/10/21 17:01:28;;;;;;;0.10;0.10;;;;;;;;;;10455524;28;20051;-68
2021/10/21 17:06:31;;;;;;;0.10;0.10;;;;;;;;;;10432300;28;20898;-70
2021/10/21 17:11:34;;;;;;;0.00;0.00;;;;;;;;;;10454824;28;20387;-70
2021/10/21 17:16:42;;;;;;;0.10;0.10;;;;;;;;;;10458167;28;20051;-70
2021/10/21 17:21:44;;;;;;;0.10;0.10;;;;;;;;;;10414260;28;20141;-70
2021/10/21 17:26:47;;;;;;;0.10;0.10;;;;;;;;;;10416360;28;20047;-70
2021/10/21 17:31:53;;;;;;;0.10;0.10;;;;;;;;;;10413214;28;20040;-70
2021/10/21 17:36:56;;;;;;;0.10;0.10;;;;;;;;;;10405325;28;20057;-68
2021/10/21 17:42:00;;;;;;;0.10;0.10;;;;;;;;;;10377566;28;20045;-69
2021/10/21 17:47:05;;;;;;;0.10;0.10;;;;;;;;;;10386961;28;20110;-67
2021/10/21 17:52:08;;;;;;;0.10;0.10;;;;;;;;;;10375929;28;20049;-68
2021/10/21 17:57:11;;;;;;;0.10;0.10;;;;;;;;;;10389706;28;20058;-70
2021/10/21 18:02:16;;;;;;;0.10;0.10;;;;;;;;;;10391566;28;20033;-68
2021/10/21 18:07:19;;;;;;;0.10;0.10;;;;;;;;;;10390621;28;20459;-69
2021/10/21 18:12:22;;;;;;;0.10;0.10;;;;;;;;;;10397460;28;20037;-69
2021/10/21 18:17:26;;;;;;;0.10;0.10;;;;;;;;;;10400545;28;20060;-69
2021/10/21 18:22:29;;;;;;;0.10;0.10;;;;;;;;;;10434134;28;20052;-67
2021/10/21 18:27:35;;;;;;;0.10;0.10;;;;;;;;;;10436190;28;20044;-68
2021/10/21 18:32:39;;;;;;;0.10;0.10;;;;;;;;;;10466955;28;20047;-68
2021/10/21 18:37:43;;;;;;;0.10;0.10;;;;;;;;;;10469885;28;20181;-75
2021/10/21 18:42:46;;;;;;;0.10;0.10;;;;;;;;;;10469353;28;20048;-72
2021/10/21 18:47:50;;;;;;;0.10;0.10;;;;;;;;;;10462954;28;20420;-70
2021/10/21 18:52:53;;;;;;;0.10;0.10;;;;;;;;;;10435589;28;20037;-72
2021/10/21 18:57:56;;;;;;;0.10;0.10;;;;;;;;;;10453147;28;20455;-73
2021/10/21 19:03:01;;;;;;;0.10;0.10;;;;;;;;;;10451371;28;20033;-71
2021/10/21 19:08:06;;;;;;;0.10;0.10;;;;;;;;;;10448784;28;20037;-73
2021/10/21 19:13:11;;;;;;;0.08;0.08;;;;;;;;;;10450822;28;20092;-68
2021/10/21 19:18:16;;;;;;;0.10;0.10;;;;;;;;;;10442821;28;20043;-70
2021/10/21 19:23:21;;;;;;;0.10;0.10;;;;;;;;;;10448872;28;20148;-74
2021/10/21 19:28:25;;;;;;;0.10;0.10;;;;;;;;;;10455998;28;20414;-72
2021/10/21 19:33:31;;;;;;;0.10;0.10;;;;;;;;;;10457471;28;20092;-72
2021/10/21 19:38:35;;;;;;;0.10;0.10;;;;;;;;;;10444572;28;20053;-71
2021/10/21 19:43:39;;;;;;;0.10;0.10;;;;;;;;;;10454147;28;20041;-73
2021/10/21 19:48:43;;;;;;;0.10;0.10;;;;;;;;;;10446798;28;20777;-70
2021/10/21 19:53:46;;;;;;;0.10;0.10;;;;;;;;;;10447636;28;20055;-73
2021/10/21 19:58:50;;;;;;;0.10;0.10;;;;;;;;;;10446450;28;20041;-76
2021/10/21 20:03:54;;;;;;;0.10;0.10;;;;;;;;;;10432667;28;20168;-70
2021/10/21 20:08:57;;;;;;;0.10;0.10;;;;;;;;;;10439838;28;20078;-69
2021/10/21 20:14:00;;;;;;;0.10;0.10;;;;;;;;;;10436013;28;20477;-69
2021/10/21 20:19:04;;;;;;;0.00;0.00;;;;;;;;;;10418752;28;20047;-67
2021/10/21 20:24:07;;;;;;;0.10;0.10;;;;;;;;;;10448019;28;20059;-68
2021/10/21 20:29:11;;;;;;;0.10;0.10;;;;;;;;;;10432287;28;20055;-68
2021/10/21 20:34:15;;;;;;;0.10;0.10;;;;;;;;;;10456866;28;20055;-69
2021/10/21 20:39:19;;;;;;;0.10;0.10;;;;;;;;;;10459162;28;20047;-68
2021/10/21 20:44:22;;;;;;;0.10;0.10;;;;;;;;;;10434502;28;20060;-69
2021/10/21 20:49:26;;;;;;;0.10;0.10;;;;;;;;;;10452822;28;20044;-72
2021/10/21 20:54:29;;;;;;;0.13;0.13;;;;;;;;;;10438214;28;20053;-77
2021/10/21 20:59:32;;;;;;;0.10;0.10;;;;;;;;;;10458535;28;20471;-76
2021/10/21 21:04:36;;;;;;;0.20;0.20;;;;;;;;;;10456480;28;20124;-69
2021/10/21 21:09:39;;;;;;;0.10;0.10;;;;;;;;;;10445275;28;20533;-68
2021/10/21 21:14:42;;;;;;;0.13;0.13;;;;;;;;;;10445605;28;20416;-73
2021/10/21 21:19:46;;;;;;;0.20;0.20;;;;;;;;;;10446859;28;20059;-68
2021/10/21 21:24:49;;;;;;;0.20;0.10;;;;;;;;;;10394926;28;20049;-69
2021/10/21 21:29:51;;;;;;;0.10;0.10;;;;;;;;;;10398995;28;20052;-69
2021/10/21 21:34:59;;;;;;;0.10;0.10;;;;;;;;;;10419607;28;20051;-69
2021/10/21 21:40:04;;;;;;;0.15;0.10;;;;;;;;;;10423581;28;20038;-69
2021/10/21 21:45:07;;;;;;;0.10;0.10;;;;;;;;;;10412817;28;20055;-69
2021/10/21 21:50:11;;;;;;;0.10;0.10;;;;;;;;;;10396397;28;20052;-69
2021/10/21 21:55:15;;;;;;;0.10;0.10;;;;;;;;;;10393377;28;20128;-69
2021/10/21 22:00:18;;;;;;;0.10;0.10;;;;;;;;;;10394440;28;20045;-69
2021/10/21 22:05:21;;;;;;;0.10;0.10;;;;;;;;;;10397715;28;20069;-69
2021/10/21 22:10:25;;;;;;;0.10;0.10;;;;;;;;;;10396028;28;20464;-69
2021/10/21 22:15:28;;;;;;;0.10;0.10;;;;;;;;;;10381292;28;20153;-68
2021/10/21 22:20:31;;;;;;;0.10;0.10;;;;;;;;;;10392257;28;20505;-68
2021/10/21 22:25:35;;;;;;;0.30;0.10;;;;;;;;;;10390766;28;20057;-68
2021/10/21 22:30:38;;;;;;;0.10;0.10;;;;;;;;;;10370076;28;20056;-69
2021/10/21 22:35:41;;;;;;;0.10;0.10;;;;;;;;;;10390136;28;20060;-69
2021/10/21 22:40:46;;;;;;;0.10;0.10;;;;;;;;;;10390598;28;20372;-69
2021/10/21 22:45:50;;;;;;;0.20;0.20;;;;;;;;;;10389022;28;20040;-69
2021/10/21 22:50:53;;;;;;;0.10;0.10;;;;;;;;;;10372370;28;20068;-69
2021/10/21 22:55:58;;;;;;;0.10;0.10;;;;;;;;;;10390241;28;20077;-69
2021/10/21 23:01:04;;;;;;;0.10;0.10;;;;;;;;;;10393545;28;20116;-69
2021/10/21 23:06:17;;;;;;;0.10;0.10;;;;;;;;;;10397463;28;20053;-68
2021/10/21 23:11:21;;;;;;;0.10;0.10;;;;;;;;;;10397911;28;20049;-68
2021/10/21 23:16:24;;;;;;;0.10;0.10;;;;;;;;;;10379086;28;20052;-68
2021/10/21 23:21:27;;;;;;;0.10;0.10;;;;;;;;;;10380904;28;20069;-68
2021/10/21 23:26:32;;;;;;;0.10;0.10;;;;;;;;;;10397628;28;20502;-68
2021/10/21 23:31:35;;;;;;;0.10;0.10;;;;;;;;;;10409945;28;20052;-68
2021/10/21 23:36:37;;;;;;;0.10;0.10;;;;;;;;;;10396742;28;20134;-68
2021/10/21 23:41:41;;;;;;;0.10;0.10;;;;;;;;;;10415867;28;20063;-68
2021/10/21 23:46:44;;;;;;;0.10;0.10;;;;;;;;;;10399061;28;20042;-68
2021/10/21 23:51:47;;;;;;;0.10;0.10;;;;;;;;;;10387632;28;20052;-68
2021/10/21 23:56:52;;;;;;;0.10;0.10;;;;;;;;;;10387552;28;20168;-68
